createdAt,value
2023-04-05T00:00:28.114Z,70.47
2023-04-05T00:03:00.085Z,71.25
2023-04-05T00:05:34.168Z,71.26
2023-04-05T00:08:04.443Z,71.49
2023-04-05T00:10:32.017Z,71.56
2023-04-05T00:12:59.036Z,71.25
2023-04-05T00:15:27.854Z,71.51
2023-04-05T00:17:55.837Z,71.41
2023-04-05T00:20:22.737Z,70.85
2023-04-05T00:22:50.903Z,71.22
2023-04-05T00:25:18.774Z,71.32
2023-04-05T00:27:46.007Z,71.68
2023-04-05T00:30:13.267Z,71.91
2023-04-05T00:32:40.173Z,72.19
2023-04-05T00:35:07.364Z,71.82
2023-04-05T00:37:34.367Z,71.71
2023-04-05T00:40:01.186Z,71.44
2023-04-05T00:42:28.165Z,71.67
2023-04-05T00:44:55.032Z,71.45
2023-04-05T00:47:22.030Z,71.44
2023-04-05T00:49:49.837Z,71.72
2023-04-05T00:52:19.657Z,71.78
2023-04-05T00:54:46.566Z,71.93
2023-04-05T00:57:13.973Z,72.29
2023-04-05T00:59:40.924Z,73.22
2023-04-05T01:02:39.611Z,73.68
2023-04-05T01:05:30.069Z,73.96
2023-04-05T01:08:29.853Z,73.72
2023-04-05T01:11:03.559Z,73.78
2023-04-05T01:13:30.747Z,73.59
2023-04-05T01:15:57.830Z,73.79
2023-04-05T01:18:26.898Z,73.57
2023-04-05T01:21:37.893Z,73.28
2023-04-05T01:24:25.117Z,72.83
2023-04-05T01:27:19.637Z,72.36
2023-04-05T01:30:10.682Z,72.96
2023-04-05T01:33:16.290Z,73.67
2023-04-05T01:35:56.263Z,72.94
2023-04-05T01:38:27.720Z,73.14
2023-04-05T01:40:54.989Z,72.85
2023-04-05T01:43:21.812Z,73.00
2023-04-05T01:45:48.791Z,72.47
2023-04-05T01:48:16.026Z,73.02
2023-04-05T01:50:43.534Z,73.50
2023-04-05T01:53:10.843Z,74.02
2023-04-05T01:55:37.804Z,75.37
2023-04-05T01:58:04.768Z,76.97
2023-04-05T02:00:31.727Z,77.19
2023-04-05T02:02:58.756Z,75.79
2023-04-05T02:05:25.615Z,76.52
2023-04-05T02:07:52.438Z,75.66
2023-04-05T02:10:20.425Z,75.62
2023-04-05T02:12:47.249Z,75.52
2023-04-05T02:15:14.206Z,74.62
2023-04-05T02:17:45.957Z,74.98
2023-04-05T02:20:14.596Z,75.78
2023-04-05T02:22:45.251Z,76.46
2023-04-05T02:25:13.170Z,76.42
2023-04-05T02:27:40.768Z,76.40
2023-04-05T02:30:08.592Z,75.39
2023-04-05T02:32:35.453Z,74.87
2023-04-05T02:35:02.679Z,75.61
2023-04-05T02:37:29.564Z,74.94
2023-04-05T02:39:56.589Z,74.26
2023-04-05T02:42:23.451Z,74.49
2023-04-05T02:44:50.324Z,74.77
2023-04-05T02:47:21.289Z,74.48
2023-04-05T02:49:51.316Z,74.95
2023-04-05T02:52:18.148Z,75.79
2023-04-05T02:54:46.652Z,76.75
2023-04-05T02:57:14.182Z,77.33
2023-04-05T02:59:40.987Z,77.67
2023-04-05T03:02:10.698Z,77.80
2023-04-05T03:04:38.744Z,78.14
2023-04-05T03:07:05.677Z,78.25
2023-04-05T03:09:38.580Z,77.60
2023-04-05T03:12:05.683Z,77.18
2023-04-05T03:14:33.201Z,77.28
2023-04-05T03:17:01.179Z,77.29
2023-04-05T03:19:27.989Z,76.86
2023-04-05T03:21:54.761Z,75.86
2023-04-05T03:24:21.925Z,75.65
2023-04-05T03:26:49.223Z,75.14
2023-04-05T03:29:17.453Z,74.94
2023-04-05T03:31:45.672Z,75.44
2023-04-05T03:34:12.550Z,75.36
2023-04-05T03:36:42.004Z,75.25
2023-04-05T03:39:10.537Z,75.05
2023-04-05T03:41:38.729Z,75.17
2023-04-05T03:44:07.074Z,75.03
2023-04-05T03:46:34.445Z,74.64
2023-04-05T03:49:02.313Z,74.63
2023-04-05T03:51:29.418Z,74.60
2023-04-05T03:53:56.357Z,74.69
2023-04-05T03:56:23.176Z,74.71
2023-04-05T03:58:50.079Z,74.92
2023-04-05T04:01:18.392Z,75.39
2023-04-05T04:03:45.459Z,75.69
2023-04-05T04:06:12.471Z,76.59
2023-04-05T04:08:39.441Z,77.88
2023-04-05T04:11:07.191Z,78.26
2023-04-05T04:13:34.045Z,77.42
2023-04-05T04:16:00.894Z,77.24
2023-04-05T04:18:27.694Z,78.27
2023-04-05T04:20:54.587Z,78.11
2023-04-05T04:23:21.327Z,77.88
2023-04-05T04:25:54.472Z,78.50
2023-04-05T04:28:21.598Z,78.69
2023-04-05T04:30:48.453Z,77.83
2023-04-05T04:33:17.447Z,77.54
2023-04-05T04:35:47.112Z,77.53
2023-04-05T04:38:19.549Z,78.60
2023-04-05T04:40:47.363Z,78.69
2023-04-05T04:43:18.845Z,78.47
2023-04-05T04:45:51.894Z,78.33
2023-04-05T04:48:18.815Z,79.12
2023-04-05T04:50:48.395Z,78.53
2023-04-05T04:53:18.014Z,78.42
2023-04-05T04:55:45.721Z,78.40
2023-04-05T04:58:13.774Z,78.24
2023-04-05T05:00:44.530Z,78.73
2023-04-05T05:03:12.042Z,78.84
2023-04-05T05:05:44.050Z,80.09
2023-04-05T05:08:11.137Z,80.43
2023-04-05T05:10:38.045Z,80.58
2023-04-05T05:13:05.610Z,80.44
2023-04-05T05:15:32.527Z,80.57
2023-04-05T05:17:59.508Z,80.19
2023-04-05T05:20:28.453Z,80.16
2023-04-05T05:22:55.683Z,80.99
2023-04-05T05:25:22.736Z,81.45
2023-04-05T05:27:53.345Z,81.42
2023-04-05T05:30:20.960Z,80.75
2023-04-05T05:32:48.488Z,79.86
2023-04-05T05:35:15.613Z,80.02
2023-04-05T05:37:42.419Z,80.76
2023-04-05T05:40:13.535Z,78.78
2023-04-05T05:42:40.296Z,78.41
2023-04-05T05:45:08.221Z,78.54
2023-04-05T05:47:35.488Z,79.12
2023-04-05T05:50:03.499Z,78.90
2023-04-05T05:52:30.391Z,78.99
2023-04-05T05:54:57.454Z,78.61
2023-04-05T05:57:24.462Z,78.29
2023-04-05T05:59:51.449Z,78.57
2023-04-05T06:02:19.409Z,78.86
2023-04-05T06:04:46.281Z,78.87
2023-04-05T06:07:13.676Z,79.55
2023-04-05T06:09:40.488Z,79.69
2023-04-05T06:12:07.439Z,79.64
2023-04-05T06:14:34.255Z,79.18
2023-04-05T06:17:00.986Z,79.09
2023-04-05T06:19:27.938Z,79.39
2023-04-05T06:21:55.071Z,78.96
2023-04-05T06:24:21.961Z,78.32
2023-04-05T06:26:50.842Z,78.47
2023-04-05T06:29:17.705Z,78.15
2023-04-05T06:31:46.555Z,76.79
2023-04-05T06:34:13.508Z,76.89
2023-04-05T06:36:40.445Z,76.49
2023-04-05T06:39:07.940Z,75.54
2023-04-05T06:41:35.028Z,75.56
2023-04-05T06:44:05.078Z,75.64
2023-04-05T06:46:32.415Z,75.29
2023-04-05T06:49:02.279Z,74.40
2023-04-05T06:51:30.926Z,74.47
2023-04-05T06:53:58.156Z,74.18
2023-04-05T06:56:25.088Z,73.30
2023-04-05T06:58:51.980Z,72.37
2023-04-05T07:01:18.958Z,71.45
2023-04-05T07:03:45.896Z,70.58
2023-04-05T07:06:12.729Z,70.64
2023-04-05T07:08:39.618Z,69.56
2023-04-05T07:11:06.883Z,68.63
2023-04-05T07:13:34.786Z,67.64
2023-04-05T07:16:03.201Z,67.60
2023-04-05T07:18:30.301Z,66.93
2023-04-05T07:21:03.710Z,66.51
2023-04-05T07:23:31.130Z,66.19
2023-04-05T07:26:05.786Z,66.67
2023-04-05T07:28:35.278Z,65.96
2023-04-05T07:31:03.883Z,66.05
2023-04-05T07:33:31.152Z,64.86
2023-04-05T07:35:58.569Z,64.01
2023-04-05T07:38:27.606Z,63.39
2023-04-05T07:40:54.378Z,63.26
2023-04-05T07:43:21.459Z,61.94
2023-04-05T07:45:48.364Z,61.34
2023-04-05T07:48:15.462Z,60.71
2023-04-05T07:50:47.855Z,60.18
2023-04-05T07:53:15.370Z,58.79
2023-04-05T07:55:42.260Z,57.24
2023-04-05T07:58:10.334Z,56.92
2023-04-05T08:00:37.855Z,56.52
2023-04-05T08:03:05.046Z,54.78
2023-04-05T08:05:32.001Z,53.81
2023-04-05T08:07:58.905Z,53.28
2023-04-05T08:10:26.162Z,52.45
2023-04-05T08:12:53.558Z,51.76
2023-04-05T08:15:20.364Z,51.15
2023-04-05T08:17:47.389Z,49.70
2023-04-05T08:20:14.219Z,49.29
2023-04-05T08:22:41.430Z,49.72
2023-04-05T08:25:09.221Z,47.83
2023-04-05T08:27:36.074Z,47.75
2023-04-05T08:30:03.077Z,47.49
2023-04-05T08:32:30.051Z,45.69
2023-04-05T08:34:56.878Z,45.35
2023-04-05T08:37:23.777Z,45.25
2023-04-05T08:39:50.910Z,45.03
2023-04-05T08:42:29.324Z,43.07
2023-04-05T08:44:59.604Z,42.10
2023-04-05T08:47:27.908Z,40.97
2023-04-05T08:49:55.143Z,41.11
2023-04-05T08:52:22.170Z,40.93
2023-04-05T08:54:50.382Z,40.06
2023-04-05T08:57:22.046Z,40.02
2023-04-05T08:59:50.749Z,38.99
2023-04-05T09:02:24.726Z,39.17
2023-04-05T09:04:52.598Z,38.80
2023-04-05T09:07:20.717Z,38.81
2023-04-05T09:09:53.296Z,37.64
2023-04-05T09:12:24.397Z,36.43
2023-04-05T09:14:52.560Z,36.72
2023-04-05T09:17:19.718Z,35.93
2023-04-05T09:19:46.512Z,36.15
2023-04-05T09:22:13.965Z,37.11
2023-04-05T09:24:44.089Z,36.04
2023-04-05T09:27:20.495Z,35.15
2023-04-05T09:29:50.360Z,34.52
2023-04-05T09:32:20.661Z,35.76
2023-04-05T09:34:48.025Z,35.34
2023-04-05T09:37:20.139Z,34.74
2023-04-05T09:39:51.494Z,34.36
2023-04-05T09:42:22.934Z,34.10
2023-04-05T09:44:53.589Z,34.90
2023-04-05T09:47:34.277Z,34.98
2023-04-05T09:50:06.233Z,34.23
2023-04-05T09:52:33.911Z,34.46
2023-04-05T09:55:04.404Z,34.63
2023-04-05T09:57:36.706Z,36.31
2023-04-05T10:00:06.001Z,36.65
2023-04-05T10:02:40.462Z,33.19
2023-04-05T10:05:13.832Z,33.79
2023-04-05T10:07:44.545Z,33.28
2023-04-05T10:10:16.032Z,32.57
2023-04-05T10:12:43.105Z,32.68
2023-04-05T10:15:13.967Z,32.51
2023-04-05T10:17:53.299Z,33.56
2023-04-05T10:20:24.059Z,32.51
2023-04-05T10:23:11.620Z,32.36
2023-04-05T10:26:04.132Z,32.02
2023-04-05T10:28:45.999Z,31.98
2023-04-05T10:31:37.837Z,32.14
2023-04-05T10:34:09.018Z,31.95
2023-04-05T10:36:51.047Z,31.19
2023-04-05T10:39:27.577Z,31.57
2023-04-05T10:42:01.343Z,31.60
2023-04-05T10:44:34.007Z,31.16
2023-04-05T10:47:03.951Z,30.79
2023-04-05T10:49:42.670Z,30.43
2023-04-05T10:52:10.027Z,30.02
2023-04-05T10:54:37.312Z,31.10
2023-04-05T10:57:09.762Z,32.35
2023-04-05T10:59:45.074Z,29.18
2023-04-05T11:02:14.090Z,30.08
2023-04-05T11:04:42.355Z,29.38
2023-04-05T11:07:19.580Z,29.32
2023-04-05T11:10:01.447Z,29.52
2023-04-05T11:12:46.601Z,29.21
2023-04-05T11:15:31.945Z,29.25
2023-04-05T11:18:22.551Z,28.89
2023-04-05T11:21:07.213Z,28.13
2023-04-05T11:24:06.975Z,27.82
2023-04-05T11:26:56.051Z,27.58
2023-04-05T11:29:51.468Z,27.38
2023-04-05T11:32:18.455Z,26.74
2023-04-05T11:34:59.547Z,25.77
2023-04-05T11:38:00.540Z,26.04
2023-04-05T11:40:36.678Z,25.92
2023-04-05T11:43:10.205Z,25.08
2023-04-05T11:45:45.803Z,24.51
2023-04-05T11:48:15.280Z,24.57
2023-04-05T11:50:42.726Z,24.87
2023-04-05T11:53:18.139Z,24.78
2023-04-05T11:55:51.022Z,25.05
2023-04-05T11:58:24.007Z,25.03
2023-04-05T12:01:07.166Z,24.52
2023-04-05T12:03:35.769Z,24.00
2023-04-05T12:06:06.227Z,24.28
2023-04-05T12:08:53.350Z,23.31
2023-04-05T12:11:29.492Z,23.54
2023-04-05T12:13:58.896Z,23.33
2023-04-05T12:16:25.989Z,23.32
2023-04-05T12:18:59.342Z,23.22
2023-04-05T12:21:28.355Z,22.97
2023-04-05T12:23:55.746Z,22.92
2023-04-05T12:26:23.319Z,22.64
2023-04-05T12:28:54.244Z,22.60
2023-04-05T12:31:42.184Z,22.57
2023-04-05T12:34:10.990Z,22.89
2023-04-05T12:36:43.338Z,22.30
2023-04-05T12:39:10.817Z,22.15
2023-04-05T12:41:38.057Z,22.49
2023-04-05T12:44:33.924Z,22.12
2023-04-05T12:47:02.811Z,21.83
2023-04-05T12:49:37.191Z,21.55
2023-04-05T12:52:04.353Z,21.78
2023-04-05T12:54:32.417Z,21.20
2023-04-05T12:57:04.354Z,21.41
2023-04-05T12:59:31.360Z,20.78
2023-04-05T13:01:58.339Z,21.09
2023-04-05T13:04:26.796Z,21.15
2023-04-05T13:06:54.972Z,20.86
2023-04-05T13:09:21.835Z,20.86
2023-04-05T13:11:49.271Z,21.68
2023-04-05T13:14:16.225Z,21.36
2023-04-05T13:16:43.141Z,20.59
2023-04-05T13:19:10.094Z,20.54
2023-04-05T13:21:36.886Z,21.07
2023-04-05T13:24:03.881Z,21.10
2023-04-05T13:26:30.773Z,21.08
2023-04-05T13:28:57.642Z,20.46
2023-04-05T13:31:24.543Z,20.60
2023-04-05T13:33:51.912Z,20.84
2023-04-05T13:36:18.726Z,20.30
2023-04-05T13:38:45.669Z,19.79
2023-04-05T13:41:12.550Z,20.07
2023-04-05T13:43:39.392Z,20.39
2023-04-05T13:46:06.234Z,20.87
2023-04-05T13:48:33.076Z,20.45
2023-04-05T13:50:59.851Z,20.38
2023-04-05T13:53:28.591Z,20.25
2023-04-05T13:55:55.733Z,20.48
2023-04-05T13:58:22.605Z,21.04
2023-04-05T14:00:49.445Z,20.84
2023-04-05T14:03:16.415Z,20.94
2023-04-05T14:05:43.188Z,20.65
2023-04-05T14:08:10.027Z,20.92
2023-04-05T14:10:36.992Z,20.79
2023-04-05T14:13:03.797Z,21.18
2023-04-05T14:15:31.050Z,21.27
2023-04-05T14:17:57.935Z,21.77
2023-04-05T14:20:24.912Z,20.97
2023-04-05T14:22:51.838Z,21.46
2023-04-05T14:25:18.917Z,21.49
2023-04-05T14:27:45.997Z,21.90
2023-04-05T14:30:13.714Z,22.20
2023-04-05T14:32:40.798Z,22.03
2023-04-05T14:35:08.940Z,22.32
2023-04-05T14:37:35.946Z,22.19
2023-04-05T14:40:02.966Z,22.46
2023-04-05T14:42:45.188Z,22.26
2023-04-05T14:45:15.319Z,22.74
2023-04-05T14:47:42.213Z,23.29
2023-04-05T14:50:09.827Z,23.61
2023-04-05T14:52:37.293Z,23.98
2023-04-05T14:55:04.506Z,24.65
2023-04-05T14:57:31.392Z,24.06
2023-04-05T14:59:58.477Z,25.02
2023-04-05T15:02:25.792Z,25.20
2023-04-05T15:04:52.677Z,26.43
2023-04-05T15:07:19.733Z,27.32
2023-04-05T15:09:46.706Z,27.87
2023-04-05T15:12:13.552Z,28.71
2023-04-05T15:14:40.479Z,28.50
2023-04-05T15:17:07.451Z,29.10
2023-04-05T15:19:35.405Z,29.42
2023-04-05T15:22:02.339Z,29.34
2023-04-05T15:24:29.295Z,29.80
2023-04-05T15:27:02.584Z,29.68
2023-04-05T15:29:30.279Z,30.10
2023-04-05T15:31:58.155Z,30.07
2023-04-05T15:34:26.217Z,30.27
2023-04-05T15:36:54.184Z,30.61
2023-04-05T15:39:21.624Z,30.43
2023-04-05T15:41:48.743Z,30.42
2023-04-05T15:44:16.074Z,30.42
2023-04-05T15:46:43.316Z,30.60
2023-04-05T15:49:13.349Z,30.44
2023-04-05T15:51:41.653Z,30.39
2023-04-05T15:54:08.855Z,30.23
2023-04-05T15:56:37.738Z,31.17
2023-04-05T15:59:05.965Z,31.60
2023-04-05T16:01:32.908Z,31.55
2023-04-05T16:03:59.924Z,31.54
2023-04-05T16:06:29.390Z,31.57
2023-04-05T16:08:56.298Z,31.07
2023-04-05T16:11:27.299Z,31.42
2023-04-05T16:13:54.396Z,31.42
2023-04-05T16:16:32.590Z,31.58
2023-04-05T16:19:08.949Z,31.37
2023-04-05T16:21:36.146Z,30.99
2023-04-05T16:24:06.718Z,31.24
2023-04-05T16:26:34.429Z,31.68
2023-04-05T16:29:01.702Z,31.74
2023-04-05T16:31:29.024Z,31.78
2023-04-05T16:33:56.631Z,32.15
2023-04-05T16:36:23.499Z,31.66
2023-04-05T16:38:50.321Z,31.20
2023-04-05T16:41:17.283Z,31.57
2023-04-05T16:43:44.289Z,32.07
2023-04-05T16:46:11.153Z,32.57
2023-04-05T16:48:38.160Z,33.08
2023-04-05T16:51:07.139Z,32.75
2023-04-05T16:53:34.287Z,32.47
2023-04-05T16:56:01.131Z,32.43
2023-04-05T16:58:28.130Z,32.27
2023-04-05T17:00:58.819Z,32.36
2023-04-05T17:03:26.306Z,32.57
2023-04-05T17:05:53.366Z,32.52
2023-04-05T17:08:20.259Z,32.47
2023-04-05T17:10:47.577Z,32.40
2023-04-05T17:13:17.968Z,33.18
2023-04-05T17:15:44.888Z,32.68
2023-04-05T17:18:12.262Z,32.69
2023-04-05T17:20:39.270Z,32.54
2023-04-05T17:23:06.153Z,32.81
2023-04-05T17:25:33.056Z,32.98
2023-04-05T17:28:00.119Z,32.73
2023-04-05T17:30:27.099Z,33.16
2023-04-05T17:32:54.025Z,33.36
2023-04-05T17:35:20.976Z,33.53
2023-04-05T17:37:47.995Z,33.75
2023-04-05T17:40:16.200Z,33.60
2023-04-05T17:42:43.138Z,33.23
2023-04-05T17:45:11.361Z,33.87
2023-04-05T17:47:38.494Z,33.65
2023-04-05T17:50:06.149Z,33.81
2023-04-05T17:52:33.136Z,33.93
2023-04-05T17:55:00.193Z,34.37
2023-04-05T17:57:27.173Z,34.30
2023-04-05T17:59:54.044Z,34.14
2023-04-05T18:02:21.101Z,34.51
2023-04-05T18:04:48.026Z,34.83
2023-04-05T18:07:14.901Z,35.30
2023-04-05T18:09:42.364Z,35.75
2023-04-05T18:12:12.621Z,36.91
2023-04-05T18:14:39.457Z,37.65
2023-04-05T18:17:09.432Z,38.38
2023-04-05T18:19:36.700Z,39.09
2023-04-05T18:22:03.866Z,39.88
2023-04-05T18:24:33.103Z,40.84
2023-04-05T18:26:59.991Z,41.38
2023-04-05T18:29:30.494Z,41.20
2023-04-05T18:31:57.500Z,41.61
2023-04-05T18:34:24.510Z,41.91
2023-04-05T18:36:54.174Z,42.55
2023-04-05T18:39:22.192Z,43.17
2023-04-05T18:41:49.002Z,43.36
2023-04-05T18:44:16.434Z,43.20
2023-04-05T18:46:44.129Z,43.18
2023-04-05T18:49:11.431Z,43.43
2023-04-05T18:51:38.330Z,43.72
2023-04-05T18:54:05.579Z,44.63
2023-04-05T18:56:32.807Z,45.46
2023-04-05T18:58:59.904Z,45.53
2023-04-05T19:01:27.188Z,45.68
2023-04-05T19:03:54.877Z,45.73
2023-04-05T19:06:21.752Z,45.47
2023-04-05T19:08:48.573Z,45.41
2023-04-05T19:11:15.546Z,45.68
2023-04-05T19:13:42.563Z,46.23
2023-04-05T19:16:09.600Z,47.13
2023-04-05T19:18:36.719Z,47.35
2023-04-05T19:21:04.104Z,47.44
2023-04-05T19:23:31.371Z,48.06
2023-04-05T19:25:58.630Z,49.13
2023-04-05T19:28:27.189Z,49.60
2023-04-05T19:30:54.909Z,50.10
2023-04-05T19:33:22.373Z,49.93
2023-04-05T19:35:49.597Z,50.10
2023-04-05T19:38:16.775Z,50.09
2023-04-05T19:40:43.895Z,50.43
2023-04-05T19:43:12.490Z,50.66
2023-04-05T19:45:39.582Z,50.31
2023-04-05T19:48:38.218Z,51.35
2023-04-05T19:51:07.702Z,51.95
2023-04-05T19:53:50.146Z,52.77
2023-04-05T19:56:31.064Z,53.08
2023-04-05T19:59:17.574Z,52.98
2023-04-05T20:01:47.303Z,53.27
2023-04-05T20:04:22.378Z,52.87
2023-04-05T20:06:54.661Z,53.27
2023-04-05T20:09:29.288Z,53.92
2023-04-05T20:12:03.610Z,53.92
2023-04-05T20:14:44.014Z,54.23
2023-04-05T20:17:13.466Z,54.59
2023-04-05T20:20:02.959Z,55.09
2023-04-05T20:22:32.820Z,55.40
2023-04-05T20:25:01.601Z,56.52
2023-04-05T20:27:28.565Z,56.52
2023-04-05T20:29:56.676Z,56.61
2023-04-05T20:32:27.906Z,56.32
2023-04-05T20:34:55.113Z,56.12
2023-04-05T20:37:22.093Z,56.06
2023-04-05T20:39:50.410Z,56.43
2023-04-05T20:42:17.318Z,56.65
2023-04-05T20:44:48.016Z,57.11
2023-04-05T20:47:15.005Z,57.81
2023-04-05T20:49:42.589Z,58.52
2023-04-05T20:52:11.029Z,58.14
2023-04-05T20:54:37.957Z,57.74
2023-04-05T20:57:04.857Z,57.41
2023-04-05T20:59:31.792Z,57.41
2023-04-05T21:01:58.785Z,57.41
2023-04-05T21:04:27.432Z,57.75
2023-04-05T21:06:56.452Z,57.44
2023-04-05T21:09:23.413Z,57.44
2023-04-05T21:11:50.267Z,58.04
2023-04-05T21:14:17.071Z,58.10
2023-04-05T21:16:44.026Z,58.09
2023-04-05T21:19:11.158Z,58.22
2023-04-05T21:21:39.589Z,58.58
2023-04-05T21:24:06.658Z,58.41
2023-04-05T21:26:33.447Z,58.67
2023-04-05T21:29:00.288Z,59.10
2023-04-05T21:31:27.314Z,59.02
2023-04-05T21:33:54.218Z,59.18
2023-04-05T21:36:21.068Z,59.59
2023-04-05T21:38:47.913Z,60.39
2023-04-05T21:41:14.825Z,59.74
2023-04-05T21:43:41.708Z,60.04
2023-04-05T21:46:08.861Z,60.59
2023-04-05T21:48:36.023Z,60.75
2023-04-05T21:51:02.959Z,60.47
2023-04-05T21:53:30.522Z,60.24
2023-04-05T21:56:00.780Z,60.44
2023-04-05T21:58:27.766Z,60.39
2023-04-05T22:00:54.772Z,60.37
2023-04-05T22:03:21.830Z,60.58
2023-04-05T22:05:49.230Z,60.50
2023-04-05T22:08:16.155Z,60.37
2023-04-05T22:10:43.687Z,60.52
2023-04-05T22:13:10.608Z,60.70
2023-04-05T22:15:37.449Z,60.72
2023-04-05T22:18:05.597Z,61.01
2023-04-05T22:20:32.554Z,61.08
2023-04-05T22:23:01.067Z,60.86
2023-04-05T22:25:28.021Z,61.34
2023-04-05T22:27:59.734Z,62.22
2023-04-05T22:30:28.823Z,62.71
2023-04-05T22:32:56.297Z,62.47
2023-04-05T22:35:23.358Z,62.75
2023-04-05T22:37:50.945Z,63.04
2023-04-05T22:40:17.813Z,63.06
2023-04-05T22:42:46.395Z,63.03
2023-04-05T22:45:13.274Z,63.39
2023-04-05T22:47:40.249Z,63.82
2023-04-05T22:50:07.905Z,63.68
2023-04-05T22:52:34.799Z,63.57
2023-04-05T22:55:02.748Z,63.52
2023-04-05T22:57:31.070Z,63.70
2023-04-05T22:59:58.088Z,63.97
2023-04-05T23:02:25.560Z,63.97
2023-04-05T23:04:52.449Z,64.48
2023-04-05T23:07:19.320Z,64.10
2023-04-05T23:09:46.227Z,63.50
2023-04-05T23:12:13.643Z,63.16
2023-04-05T23:14:40.565Z,62.59
2023-04-05T23:17:07.437Z,62.94
2023-04-05T23:19:34.701Z,63.54
2023-04-05T23:22:01.569Z,63.83
2023-04-05T23:24:28.574Z,63.69
2023-04-05T23:26:55.542Z,64.32
2023-04-05T23:29:22.440Z,63.97
2023-04-05T23:31:49.377Z,63.96
2023-04-05T23:34:16.334Z,64.00
2023-04-05T23:36:43.246Z,63.71
2023-04-05T23:39:10.728Z,63.52
2023-04-05T23:41:37.605Z,63.80
2023-04-05T23:44:04.491Z,64.04
2023-04-05T23:46:31.531Z,64.29
2023-04-05T23:48:58.495Z,64.36
2023-04-05T23:51:26.557Z,64.34
2023-04-05T23:53:54.130Z,64.46
2023-04-05T23:56:21.151Z,64.87
2023-04-05T23:58:48.257Z,65.55
